sensor_id;sensor_type;location;lat;lon;timestamp;pressure;altitude;pressure_sealevel;temperature;humidity
56721;BME280;53183;47.412;18.884;2023-02-11T00:00:44;101229.66;;;-1.46;77.82
56721;BME280;53183;47.412;18.884;2023-02-11T00:03:11;101235.78;;;-1.44;77.51
56721;BME280;53183;47.412;18.884;2023-02-11T00:05:38;101242.53;;;-1.51;77.42
56721;BME280;53183;47.412;18.884;2023-02-11T00:08:06;101238.31;;;-1.46;76.98
56721;BME280;53183;47.412;18.884;2023-02-11T00:10:33;101238.16;;;-1.52;76.75
56721;BME280;53183;47.412;18.884;2023-02-11T00:13:00;101227.22;;;-1.38;76.01
56721;BME280;53183;47.412;18.884;2023-02-11T00:15:27;101227.22;;;-1.40;76.46
56721;BME280;53183;47.412;18.884;2023-02-11T00:17:55;101229.66;;;-1.46;76.51
56721;BME280;53183;47.412;18.884;2023-02-11T00:20:22;101224.38;;;-1.51;76.93
56721;BME280;53183;47.412;18.884;2023-02-11T00:22:49;101227.47;;;-1.66;77.14
56721;BME280;53183;47.412;18.884;2023-02-11T00:25:16;101222.06;;;-1.75;77.12
56721;BME280;53183;47.412;18.884;2023-02-11T00:27:44;101224.66;;;-1.75;77.54
56721;BME280;53183;47.412;18.884;2023-02-11T00:30:12;101221.81;;;-1.85;77.42
56721;BME280;53183;47.412;18.884;2023-02-11T00:32:39;101216.47;;;-1.93;77.64
56721;BME280;53183;47.412;18.884;2023-02-11T00:35:08;101213.94;;;-1.90;77.42
56721;BME280;53183;47.412;18.884;2023-02-11T00:37:35;101212.91;;;-1.97;77.43
56721;BME280;53183;47.412;18.884;2023-02-11T00:40:03;101216.31;;;-1.98;77.73
56721;BME280;53183;47.412;18.884;2023-02-11T00:42:33;101217.16;;;-2.00;77.78
56721;BME280;53183;47.412;18.884;2023-02-11T00:45:02;101215.44;;;-2.00;77.61
56721;BME280;53183;47.412;18.884;2023-02-11T00:47:29;101209.47;;;-1.97;77.31
56721;BME280;53183;47.412;18.884;2023-02-11T00:49:56;101212.16;;;-1.91;77.58
56721;BME280;53183;47.412;18.884;2023-02-11T00:52:26;101199.22;;;-1.91;76.93
56721;BME280;53183;47.412;18.884;2023-02-11T00:54:53;101208.78;;;-1.89;77.01
56721;BME280;53183;47.412;18.884;2023-02-11T00:57:21;101205.38;;;-1.87;76.64
56721;BME280;53183;47.412;18.884;2023-02-11T00:59:49;101210.44;;;-1.92;76.69
56721;BME280;53183;47.412;18.884;2023-02-11T01:02:17;101203.34;;;-1.99;76.87
56721;BME280;53183;47.412;18.884;2023-02-11T01:04:44;101204.94;;;-2.04;77.20
56721;BME280;53183;47.412;18.884;2023-02-11T01:07:12;101196.91;;;-2.15;77.39
56721;BME280;53183;47.412;18.884;2023-02-11T01:09:39;101184.91;;;-2.12;77.28
56721;BME280;53183;47.412;18.884;2023-02-11T01:12:06;101190.25;;;-2.05;77.26
56721;BME280;53183;47.412;18.884;2023-02-11T01:14:33;101183.41;;;-2.02;76.75
56721;BME280;53183;47.412;18.884;2023-02-11T01:17:04;101173.91;;;-2.03;76.72
56721;BME280;53183;47.412;18.884;2023-02-11T01:19:31;101176.97;;;-2.18;77.57
56721;BME280;53183;47.412;18.884;2023-02-11T01:21:58;101171.53;;;-2.28;77.96
56721;BME280;53183;47.412;18.884;2023-02-11T01:24:26;101169.41;;;-2.45;78.28
56721;BME280;53183;47.412;18.884;2023-02-11T01:26:53;101162.22;;;-2.55;78.94
56721;BME280;53183;47.412;18.884;2023-02-11T01:29:23;101166.44;;;-2.58;79.36
56721;BME280;53183;47.412;18.884;2023-02-11T01:31:53;101164.47;;;-2.69;79.96
56721;BME280;53183;47.412;18.884;2023-02-11T01:34:20;101159.97;;;-2.74;80.38
56721;BME280;53183;47.412;18.884;2023-02-11T01:36:48;101152.13;;;-2.77;80.50
56721;BME280;53183;47.412;18.884;2023-02-11T01:39:16;101154.53;;;-2.85;80.43
56721;BME280;53183;47.412;18.884;2023-02-11T01:41:45;101151.78;;;-2.91;80.96
56721;BME280;53183;47.412;18.884;2023-02-11T01:44:41;101147.28;;;-2.97;81.37
56721;BME280;53183;47.412;18.884;2023-02-11T01:47:09;101155.91;;;-2.98;81.98
56721;BME280;53183;47.412;18.884;2023-02-11T01:49:38;101154.88;;;-3.03;81.92
56721;BME280;53183;47.412;18.884;2023-02-11T01:52:21;101156.47;;;-3.08;81.77
56721;BME280;53183;47.412;18.884;2023-02-11T01:54:55;101148.63;;;-3.11;81.71
56721;BME280;53183;47.412;18.884;2023-02-11T01:57:45;101147.56;;;-3.18;81.99
56721;BME280;53183;47.412;18.884;2023-02-11T02:00:18;101149.22;;;-3.20;82.26
56721;BME280;53183;47.412;18.884;2023-02-11T02:05:39;101143.50;;;-3.10;81.99
56721;BME280;53183;47.412;18.884;2023-02-11T02:10:57;101142.59;;;-3.42;82.83
56721;BME280;53183;47.412;18.884;2023-02-11T02:13:29;101139.75;;;-3.49;83.36
56721;BME280;53183;47.412;18.884;2023-02-11T02:16:12;101141.34;;;-3.55;83.80
56721;BME280;53183;47.412;18.884;2023-02-11T02:19:02;101141.25;;;-3.58;84.32
56721;BME280;53183;47.412;18.884;2023-02-11T02:27:58;101134.28;;;-3.60;84.81
56721;BME280;53183;47.412;18.884;2023-02-11T02:36:33;101133.72;;;-3.50;84.79
56721;BME280;53183;47.412;18.884;2023-02-11T02:39:14;101125.94;;;-3.51;84.56
56721;BME280;53183;47.412;18.884;2023-02-11T02:41:45;101131.91;;;-3.53;84.32
56721;BME280;53183;47.412;18.884;2023-02-11T02:44:12;101124.97;;;-3.55;84.34
56721;BME280;53183;47.412;18.884;2023-02-11T02:46:40;101135.22;;;-3.58;84.25
56721;BME280;53183;47.412;18.884;2023-02-11T02:49:14;101126.62;;;-3.57;83.91
56721;BME280;53183;47.412;18.884;2023-02-11T02:54:51;101121.03;;;-3.71;85.02
56721;BME280;53183;47.412;18.884;2023-02-11T03:05:49;101111.19;;;-3.84;85.35
56721;BME280;53183;47.412;18.884;2023-02-11T03:08:37;101118.81;;;-3.87;85.44
56721;BME280;53183;47.412;18.884;2023-02-11T03:11:08;101119.22;;;-3.75;85.35
56721;BME280;53183;47.412;18.884;2023-02-11T03:13:38;101118.22;;;-3.79;84.50
56721;BME280;53183;47.412;18.884;2023-02-11T03:16:10;101123.84;;;-3.92;85.18
56721;BME280;53183;47.412;18.884;2023-02-11T03:18:41;101106.28;;;-4.04;85.78
56721;BME280;53183;47.412;18.884;2023-02-11T03:21:11;101108.84;;;-4.04;86.05
56721;BME280;53183;47.412;18.884;2023-02-11T03:23:52;101101.03;;;-4.05;85.95
56721;BME280;53183;47.412;18.884;2023-02-11T03:26:27;101097.69;;;-4.03;86.06
56721;BME280;53183;47.412;18.884;2023-02-11T03:29:22;101101.22;;;-3.99;85.93
56721;BME280;53183;47.412;18.884;2023-02-11T03:32:03;101098.00;;;-3.92;85.71
56721;BME280;53183;47.412;18.884;2023-02-11T03:40:12;101096.84;;;-4.02;86.10
56721;BME280;53183;47.412;18.884;2023-02-11T03:42:45;101090.72;;;-4.05;86.44
56721;BME280;53183;47.412;18.884;2023-02-11T03:45:17;101082.97;;;-4.05;86.46
56721;BME280;53183;47.412;18.884;2023-02-11T03:47:50;101073.38;;;-4.09;86.48
56721;BME280;53183;47.412;18.884;2023-02-11T03:50:20;101077.13;;;-3.99;85.99
56721;BME280;53183;47.412;18.884;2023-02-11T03:52:48;101062.00;;;-3.87;85.25
56721;BME280;53183;47.412;18.884;2023-02-11T03:55:17;101055.44;;;-3.76;84.27
56721;BME280;53183;47.412;18.884;2023-02-11T03:57:46;101054.78;;;-3.69;83.74
56721;BME280;53183;47.412;18.884;2023-02-11T04:00:13;101052.28;;;-3.66;83.43
56721;BME280;53183;47.412;18.884;2023-02-11T04:02:42;101051.59;;;-3.60;83.00
56721;BME280;53183;47.412;18.884;2023-02-11T04:05:13;101033.87;;;-3.48;82.54
56721;BME280;53183;47.412;18.884;2023-02-11T04:07:41;101036.63;;;-3.42;82.38
56721;BME280;53183;47.412;18.884;2023-02-11T04:10:10;101037.94;;;-3.24;81.03
56721;BME280;53183;47.412;18.884;2023-02-11T04:12:37;101033.06;;;-3.14;80.47
56721;BME280;53183;47.412;18.884;2023-02-11T04:15:05;101030.97;;;-2.94;79.34
56721;BME280;53183;47.412;18.884;2023-02-11T04:17:32;101031.06;;;-2.91;79.61
56721;BME280;53183;47.412;18.884;2023-02-11T04:19:59;101025.19;;;-2.85;79.00
56721;BME280;53183;47.412;18.884;2023-02-11T04:22:27;101017.50;;;-2.82;78.70
56721;BME280;53183;47.412;18.884;2023-02-11T04:24:54;101014.91;;;-2.82;78.60
56721;BME280;53183;47.412;18.884;2023-02-11T04:27:21;101022.00;;;-2.73;78.09
56721;BME280;53183;47.412;18.884;2023-02-11T04:29:49;101018.53;;;-2.74;78.23
56721;BME280;53183;47.412;18.884;2023-02-11T04:32:16;101010.84;;;-2.71;77.72
56721;BME280;53183;47.412;18.884;2023-02-11T04:34:43;101005.81;;;-2.66;77.45
56721;BME280;53183;47.412;18.884;2023-02-11T04:37:10;101009.53;;;-2.53;77.09
56721;BME280;53183;47.412;18.884;2023-02-11T04:39:38;101012.22;;;-2.50;77.08
56721;BME280;53183;47.412;18.884;2023-02-11T04:42:05;101005.03;;;-2.26;76.32
56721;BME280;53183;47.412;18.884;2023-02-11T04:44:33;101004.25;;;-2.22;75.85
56721;BME280;53183;47.412;18.884;2023-02-11T04:47:00;101010.06;;;-2.30;75.73
56721;BME280;53183;47.412;18.884;2023-02-11T04:49:27;101010.97;;;-2.30;75.34
56721;BME280;53183;47.412;18.884;2023-02-11T04:51:54;101008.19;;;-2.38;75.45
56721;BME280;53183;47.412;18.884;2023-02-11T04:54:22;101001.34;;;-2.36;75.60
56721;BME280;53183;47.412;18.884;2023-02-11T04:56:49;101008.12;;;-2.41;75.40
56721;BME280;53183;47.412;18.884;2023-02-11T04:59:17;101008.12;;;-2.41;75.64
56721;BME280;53183;47.412;18.884;2023-02-11T05:01:44;101008.94;;;-2.43;75.94
56721;BME280;53183;47.412;18.884;2023-02-11T05:04:11;101010.16;;;-2.27;74.75
56721;BME280;53183;47.412;18.884;2023-02-11T05:06:39;101006.63;;;-2.31;74.89
56721;BME280;53183;47.412;18.884;2023-02-11T05:09:06;101011.72;;;-2.34;74.76
56721;BME280;53183;47.412;18.884;2023-02-11T05:11:33;101015.16;;;-2.35;74.93
56721;BME280;53183;47.412;18.884;2023-02-11T05:14:02;101015.81;;;-2.44;75.19
56721;BME280;53183;47.412;18.884;2023-02-11T05:16:30;101016.56;;;-2.49;75.58
56721;BME280;53183;47.412;18.884;2023-02-11T05:18:57;101019.91;;;-2.53;75.85
56721;BME280;53183;47.412;18.884;2023-02-11T05:21:25;101013.66;;;-2.63;76.36
56721;BME280;53183;47.412;18.884;2023-02-11T05:23:52;101012.69;;;-2.67;76.66
56721;BME280;53183;47.412;18.884;2023-02-11T05:26:19;101011.62;;;-2.75;76.78
56721;BME280;53183;47.412;18.884;2023-02-11T05:28:46;101014.06;;;-2.81;76.85
56721;BME280;53183;47.412;18.884;2023-02-11T05:31:14;101013.91;;;-2.87;77.05
56721;BME280;53183;47.412;18.884;2023-02-11T05:33:42;101010.28;;;-2.94;77.19
56721;BME280;53183;47.412;18.884;2023-02-11T05:36:11;101013.63;;;-2.99;77.41
56721;BME280;53183;47.412;18.884;2023-02-11T05:38:39;101013.41;;;-3.07;77.62
56721;BME280;53183;47.412;18.884;2023-02-11T05:41:08;101009.00;;;-3.11;77.90
56721;BME280;53183;47.412;18.884;2023-02-11T05:43:36;101002.03;;;-3.14;78.16
56721;BME280;53183;47.412;18.884;2023-02-11T05:46:03;100996.94;;;-3.11;79.00
56721;BME280;53183;47.412;18.884;2023-02-11T05:48:31;101007.84;;;-3.22;79.44
56721;BME280;53183;47.412;18.884;2023-02-11T05:50:59;101005.03;;;-3.30;79.90
56721;BME280;53183;47.412;18.884;2023-02-11T05:53:26;100994.62;;;-3.33;80.04
56721;BME280;53183;47.412;18.884;2023-02-11T05:55:53;100994.44;;;-3.39;80.42
56721;BME280;53183;47.412;18.884;2023-02-11T05:58:20;100994.31;;;-3.45;81.12
56721;BME280;53183;47.412;18.884;2023-02-11T06:00:47;101001.91;;;-3.51;81.33
56721;BME280;53183;47.412;18.884;2023-02-11T06:03:15;101005.28;;;-3.53;81.20
56721;BME280;53183;47.412;18.884;2023-02-11T06:05:43;101008.69;;;-3.55;81.13
56721;BME280;53183;47.412;18.884;2023-02-11T06:08:11;101006.03;;;-3.57;81.42
56721;BME280;53183;47.412;18.884;2023-02-11T06:10:38;101011.31;;;-3.54;81.54
56721;BME280;53183;47.412;18.884;2023-02-11T06:13:08;101012.31;;;-3.48;81.42
56721;BME280;53183;47.412;18.884;2023-02-11T06:15:35;101011.56;;;-3.44;81.25
56721;BME280;53183;47.412;18.884;2023-02-11T06:18:03;101019.50;;;-3.37;80.84
56721;BME280;53183;47.412;18.884;2023-02-11T06:20:30;101018.06;;;-3.27;80.50
56721;BME280;53183;47.412;18.884;2023-02-11T06:22:57;101006.41;;;-3.11;79.91
56721;BME280;53183;47.412;18.884;2023-02-11T06:25:25;101008.50;;;-2.96;79.82
56721;BME280;53183;47.412;18.884;2023-02-11T06:27:52;100996.94;;;-2.76;79.03
56721;BME280;53183;47.412;18.884;2023-02-11T06:30:19;101011.25;;;-2.55;78.22
56721;BME280;53183;47.412;18.884;2023-02-11T06:32:46;100999.69;;;-2.33;77.07
56721;BME280;53183;47.412;18.884;2023-02-11T06:35:14;100996.84;;;-2.05;76.25
56721;BME280;53183;47.412;18.884;2023-02-11T06:37:41;100993.94;;;-1.79;75.34
56721;BME280;53183;47.412;18.884;2023-02-11T06:40:10;101004.03;;;-1.49;74.23
56721;BME280;53183;47.412;18.884;2023-02-11T06:42:37;101002.97;;;-1.13;73.37
56721;BME280;53183;47.412;18.884;2023-02-11T06:45:06;100989.00;;;-0.70;71.01
56721;BME280;53183;47.412;18.884;2023-02-11T06:47:36;100988.53;;;-0.44;69.50
56721;BME280;53183;47.412;18.884;2023-02-11T06:50:03;100988.88;;;-0.23;67.91
56721;BME280;53183;47.412;18.884;2023-02-11T06:52:31;100991.56;;;-0.15;67.34
56721;BME280;53183;47.412;18.884;2023-02-11T06:54:59;100990.03;;;0.01;66.92
56721;BME280;53183;47.412;18.884;2023-02-11T06:57:26;100984.84;;;0.02;66.31
56721;BME280;53183;47.412;18.884;2023-02-11T06:59:53;100985.06;;;0.17;66.46
56721;BME280;53183;47.412;18.884;2023-02-11T07:02:21;100980.84;;;0.29;65.67
56721;BME280;53183;47.412;18.884;2023-02-11T07:04:49;100986.09;;;0.32;65.17
56721;BME280;53183;47.412;18.884;2023-02-11T07:07:16;100985.31;;;0.37;64.81
56721;BME280;53183;47.412;18.884;2023-02-11T07:09:43;100985.38;;;0.43;64.58
56721;BME280;53183;47.412;18.884;2023-02-11T07:12:10;100983.63;;;0.45;64.77
56721;BME280;53183;47.412;18.884;2023-02-11T07:14:38;100979.22;;;0.37;65.06
56721;BME280;53183;47.412;18.884;2023-02-11T07:17:05;100983.44;;;0.29;65.42
56721;BME280;53183;47.412;18.884;2023-02-11T07:19:32;100979.97;;;0.27;64.92
56721;BME280;53183;47.412;18.884;2023-02-11T07:21:59;100981.78;;;0.34;64.85
56721;BME280;53183;47.412;18.884;2023-02-11T07:24:27;100977.34;;;0.23;65.36
56721;BME280;53183;47.412;18.884;2023-02-11T07:26:54;100975.69;;;0.32;65.17
56721;BME280;53183;47.412;18.884;2023-02-11T07:29:21;100977.50;;;0.37;64.53
56721;BME280;53183;47.412;18.884;2023-02-11T07:31:48;100982.13;;;0.64;64.06
56721;BME280;53183;47.412;18.884;2023-02-11T07:34:16;100977.81;;;0.66;63.87
56721;BME280;53183;47.412;18.884;2023-02-11T07:36:43;100978.91;;;0.90;64.01
56721;BME280;53183;47.412;18.884;2023-02-11T07:39:11;100973.06;;;1.12;63.11
56721;BME280;53183;47.412;18.884;2023-02-11T07:41:38;100978.41;;;1.34;61.85
56721;BME280;53183;47.412;18.884;2023-02-11T07:44:06;100975.75;;;1.28;62.34
56721;BME280;53183;47.412;18.884;2023-02-11T07:46:33;100969.84;;;1.50;61.55
56721;BME280;53183;47.412;18.884;2023-02-11T07:49:02;100970.00;;;1.72;61.00
56721;BME280;53183;47.412;18.884;2023-02-11T07:51:30;100974.38;;;1.79;61.28
56721;BME280;53183;47.412;18.884;2023-02-11T07:53:58;100960.44;;;1.69;61.84
56721;BME280;53183;47.412;18.884;2023-02-11T07:56:27;100957.78;;;1.68;60.90
56721;BME280;53183;47.412;18.884;2023-02-11T07:58:55;100961.28;;;1.67;60.91
56721;BME280;53183;47.412;18.884;2023-02-11T08:01:26;100965.75;;;1.91;60.45
56721;BME280;53183;47.412;18.884;2023-02-11T08:03:56;100953.62;;;1.97;60.09
56721;BME280;53183;47.412;18.884;2023-02-11T08:06:26;100957.03;;;1.82;60.29
56721;BME280;53183;47.412;18.884;2023-02-11T08:08:53;100958.81;;;1.88;60.59
56721;BME280;53183;47.412;18.884;2023-02-11T08:11:25;100960.56;;;1.97;60.45
56721;BME280;53183;47.412;18.884;2023-02-11T08:13:54;100967.59;;;2.11;60.01
56721;BME280;53183;47.412;18.884;2023-02-11T08:16:27;100965.03;;;2.22;59.99
56721;BME280;53183;47.412;18.884;2023-02-11T08:18:56;100958.03;;;2.09;59.85
56721;BME280;53183;47.412;18.884;2023-02-11T08:21:24;100964.12;;;2.16;59.55
56721;BME280;53183;47.412;18.884;2023-02-11T08:23:52;100958.97;;;2.25;58.74
56721;BME280;53183;47.412;18.884;2023-02-11T08:26:21;100954.63;;;2.30;59.44
56721;BME280;53183;47.412;18.884;2023-02-11T08:28:50;100955.53;;;2.35;59.60
56721;BME280;53183;47.412;18.884;2023-02-11T08:31:30;100964.25;;;2.49;60.50
56721;BME280;53183;47.412;18.884;2023-02-11T08:33:59;100955.56;;;2.47;60.17
56721;BME280;53183;47.412;18.884;2023-02-11T08:36:32;100947.69;;;2.32;59.99
56721;BME280;53183;47.412;18.884;2023-02-11T08:39:05;100950.31;;;2.38;60.13
56721;BME280;53183;47.412;18.884;2023-02-11T08:41:51;100952.94;;;2.44;60.75
56721;BME280;53183;47.412;18.884;2023-02-11T08:44:20;100959.06;;;2.54;60.44
56721;BME280;53183;47.412;18.884;2023-02-11T08:46:47;100954.66;;;2.47;60.34
56721;BME280;53183;47.412;18.884;2023-02-11T08:49:15;100954.72;;;2.57;60.71
56721;BME280;53183;47.412;18.884;2023-02-11T08:51:43;100960.78;;;2.56;60.34
56721;BME280;53183;47.412;18.884;2023-02-11T08:54:10;100963.44;;;2.64;60.45
56721;BME280;53183;47.412;18.884;2023-02-11T08:56:38;100954.72;;;2.76;60.13
56721;BME280;53183;47.412;18.884;2023-02-11T08:59:06;100958.22;;;2.82;60.44
56721;BME280;53183;47.412;18.884;2023-02-11T09:01:33;100956.50;;;2.81;60.64
56721;BME280;53183;47.412;18.884;2023-02-11T09:04:01;100957.38;;;2.87;58.54
56721;BME280;53183;47.412;18.884;2023-02-11T09:06:29;100954.75;;;2.82;58.65
56721;BME280;53183;47.412;18.884;2023-02-11T09:08:56;100956.47;;;2.62;58.76
56721;BME280;53183;47.412;18.884;2023-02-11T09:11:26;100953.84;;;2.57;59.16
56721;BME280;53183;47.412;18.884;2023-02-11T09:13:54;100943.44;;;2.81;59.01
56721;BME280;53183;47.412;18.884;2023-02-11T09:16:26;100937.31;;;2.69;59.78
56721;BME280;53183;47.412;18.884;2023-02-11T09:18:58;100945.16;;;2.72;58.95
56721;BME280;53183;47.412;18.884;2023-02-11T09:21:26;100947.75;;;2.58;60.04
56721;BME280;53183;47.412;18.884;2023-02-11T09:23:55;100937.34;;;2.84;59.94
56721;BME280;53183;47.412;18.884;2023-02-11T09:26:25;100934.75;;;3.13;59.75
56721;BME280;53183;47.412;18.884;2023-02-11T09:28:53;100935.59;;;3.29;60.61
56721;BME280;53183;47.412;18.884;2023-02-11T09:31:23;100932.06;;;3.64;58.76
56721;BME280;53183;47.412;18.884;2023-02-11T09:33:53;100933.75;;;3.86;58.00
56721;BME280;53183;47.412;18.884;2023-02-11T09:36:23;100934.50;;;4.22;57.09
56721;BME280;53183;47.412;18.884;2023-02-11T09:38:51;100937.91;;;4.38;57.57
56721;BME280;53183;47.412;18.884;2023-02-11T09:43:55;100930.03;;;4.42;57.15
56721;BME280;53183;47.412;18.884;2023-02-11T09:46:23;100931.75;;;4.40;56.98
56721;BME280;53183;47.412;18.884;2023-02-11T09:48:53;100923.19;;;4.11;57.76
56721;BME280;53183;47.412;18.884;2023-02-11T09:51:47;100926.66;;;4.14;57.91
56721;BME280;53183;47.412;18.884;2023-02-11T09:57:01;100919.53;;;4.45;58.53
56721;BME280;53183;47.412;18.884;2023-02-11T09:59:29;100920.34;;;4.54;58.86
56721;BME280;53183;47.412;18.884;2023-02-11T10:02:10;100920.47;;;4.35;59.28
56721;BME280;53183;47.412;18.884;2023-02-11T10:05:08;100913.38;;;4.53;59.54
56721;BME280;53183;47.412;18.884;2023-02-11T10:07:55;100921.97;;;4.75;58.84
56721;BME280;53183;47.412;18.884;2023-02-11T10:10:49;100909.59;;;4.92;58.70
56721;BME280;53183;47.412;18.884;2023-02-11T10:24:21;100886.38;;;4.46;60.62
56721;BME280;53183;47.412;18.884;2023-02-11T10:26:48;100892.50;;;4.42;61.09
56721;BME280;53183;47.412;18.884;2023-02-11T10:29:25;100885.47;;;4.47;60.42
56721;BME280;53183;47.412;18.884;2023-02-11T10:32:03;100886.38;;;4.47;60.15
56721;BME280;53183;47.412;18.884;2023-02-11T10:34:33;100880.38;;;4.27;61.04
56721;BME280;53183;47.412;18.884;2023-02-11T10:37:05;100876.94;;;4.19;62.30
56721;BME280;53183;47.412;18.884;2023-02-11T10:39:33;100870.75;;;4.31;61.60
56721;BME280;53183;47.412;18.884;2023-02-11T10:42:11;100862.88;;;4.37;61.21
56721;BME280;53183;47.412;18.884;2023-02-11T10:44:53;100861.09;;;4.40;60.62
56721;BME280;53183;47.412;18.884;2023-02-11T10:47:25;100862.00;;;4.38;60.39
56721;BME280;53183;47.412;18.884;2023-02-11T10:49:54;100857.63;;;4.37;60.73
56721;BME280;53183;47.412;18.884;2023-02-11T10:52:29;100851.56;;;4.30;60.36
56721;BME280;53183;47.412;18.884;2023-02-11T10:54:58;100845.41;;;4.39;60.38
56721;BME280;53183;47.412;18.884;2023-02-11T10:57:56;100842.66;;;4.59;58.97
56721;BME280;53183;47.412;18.884;2023-02-11T11:00:41;100846.75;;;4.89;57.74
56721;BME280;53183;47.412;18.884;2023-02-11T11:03:23;100838.69;;;5.12;56.72
56721;BME280;53183;47.412;18.884;2023-02-11T11:05:54;100838.62;;;5.18;54.29
56721;BME280;53183;47.412;18.884;2023-02-11T11:08:37;100841.13;;;5.30;52.64
56721;BME280;53183;47.412;18.884;2023-02-11T11:11:08;100839.41;;;5.26;52.14
56721;BME280;53183;47.412;18.884;2023-02-11T11:16:23;100836.16;;;5.04;52.69
56721;BME280;53183;47.412;18.884;2023-02-11T11:19:13;100818.72;;;5.02;52.18
56721;BME280;53183;47.412;18.884;2023-02-11T11:21:45;100822.84;;;5.24;52.00
56721;BME280;53183;47.412;18.884;2023-02-11T11:24:28;100819.53;;;5.07;52.37
56721;BME280;53183;47.412;18.884;2023-02-11T11:26:59;100816.69;;;5.30;52.56
56721;BME280;53183;47.412;18.884;2023-02-11T11:34:52;100791.88;;;5.57;51.54
56721;BME280;53183;47.412;18.884;2023-02-11T11:37:25;100792.59;;;5.68;51.20
56721;BME280;53183;47.412;18.884;2023-02-11T11:40:09;100787.88;;;5.98;50.43
56721;BME280;53183;47.412;18.884;2023-02-11T11:42:38;100781.34;;;6.26;51.17
56721;BME280;53183;47.412;18.884;2023-02-11T11:50:48;100767.28;;;7.26;47.71
56721;BME280;53183;47.412;18.884;2023-02-11T11:56:19;100766.22;;;6.92;47.10
56721;BME280;53183;47.412;18.884;2023-02-11T11:58:48;100747.03;;;6.87;47.62
56721;BME280;53183;47.412;18.884;2023-02-11T12:07:01;100751.12;;;6.55;49.32
56721;BME280;53183;47.412;18.884;2023-02-11T12:15:30;100735.28;;;7.08;47.20
56721;BME280;53183;47.412;18.884;2023-02-11T12:26:17;100712.47;;;7.08;47.66
56721;BME280;53183;47.412;18.884;2023-02-11T12:29:07;100688.69;;;7.14;47.83
56721;BME280;53183;47.412;18.884;2023-02-11T12:32:39;100683.22;;;7.23;47.02
56721;BME280;53183;47.412;18.884;2023-02-11T12:35:05;100681.97;;;7.01;47.33
56721;BME280;53183;47.412;18.884;2023-02-11T12:48:47;100653.50;;;7.21;47.42
56721;BME280;53183;47.412;18.884;2023-02-11T12:54:32;100648.66;;;7.01;46.17
56721;BME280;53183;47.412;18.884;2023-02-11T12:57:10;100653.87;;;7.03;45.15
56721;BME280;53183;47.412;18.884;2023-02-11T13:00:06;100643.34;;;7.03;43.07
56721;BME280;53183;47.412;18.884;2023-02-11T13:05:53;100625.94;;;6.97;43.56
56721;BME280;53183;47.412;18.884;2023-02-11T13:08:29;100624.56;;;6.79;42.92
56721;BME280;53183;47.412;18.884;2023-02-11T13:11:03;100625.97;;;6.96;42.88
56721;BME280;53183;47.412;18.884;2023-02-11T13:14:03;100614.62;;;6.94;42.88
56721;BME280;53183;47.412;18.884;2023-02-11T13:16:43;100612.28;;;7.20;42.11
56721;BME280;53183;47.412;18.884;2023-02-11T13:25:03;100615.59;;;7.30;41.19
56721;BME280;53183;47.412;18.884;2023-02-11T13:27:40;100616.13;;;7.46;41.51
56721;BME280;53183;47.412;18.884;2023-02-11T13:30:28;100613.41;;;7.50;41.17
56721;BME280;53183;47.412;18.884;2023-02-11T13:35:30;100606.50;;;7.45;44.57
56721;BME280;53183;47.412;18.884;2023-02-11T13:37:59;100602.72;;;7.57;43.75
56721;BME280;53183;47.412;18.884;2023-02-11T13:40:34;100606.19;;;7.59;43.05
56721;BME280;53183;47.412;18.884;2023-02-11T13:43:04;100612.09;;;7.68;41.89
56721;BME280;53183;47.412;18.884;2023-02-11T13:45:43;100615.63;;;7.67;41.98
56721;BME280;53183;47.412;18.884;2023-02-11T13:48:26;100604.66;;;7.48;40.78
56721;BME280;53183;47.412;18.884;2023-02-11T13:51:02;100607.03;;;7.59;41.64
56721;BME280;53183;47.412;18.884;2023-02-11T13:53:45;100608.69;;;7.63;41.37
56721;BME280;53183;47.412;18.884;2023-02-11T13:56:27;100614.91;;;7.61;40.89
56721;BME280;53183;47.412;18.884;2023-02-11T13:58:57;100618.53;;;7.55;42.21
56721;BME280;53183;47.412;18.884;2023-02-11T14:04:35;100613.34;;;7.54;42.41
56721;BME280;53183;47.412;18.884;2023-02-11T14:07:31;100612.38;;;7.56;41.92
56721;BME280;53183;47.412;18.884;2023-02-11T14:10:47;100618.47;;;7.58;41.13
56721;BME280;53183;47.412;18.884;2023-02-11T14:16:20;100601.38;;;7.39;41.78
56721;BME280;53183;47.412;18.884;2023-02-11T14:19:03;100596.91;;;7.42;42.53
56721;BME280;53183;47.412;18.884;2023-02-11T14:21:36;100588.34;;;7.34;42.50
56721;BME280;53183;47.412;18.884;2023-02-11T14:26:50;100597.25;;;6.88;42.87
56721;BME280;53183;47.412;18.884;2023-02-11T14:29:29;100600.66;;;6.92;43.00
56721;BME280;53183;47.412;18.884;2023-02-11T14:41:25;100617.38;;;6.88;43.54
56721;BME280;53183;47.412;18.884;2023-02-11T14:43:56;100614.09;;;6.78;43.39
56721;BME280;53183;47.412;18.884;2023-02-11T14:46:25;100609.84;;;6.71;44.61
56721;BME280;53183;47.412;18.884;2023-02-11T14:48:59;100608.84;;;6.76;44.39
56721;BME280;53183;47.412;18.884;2023-02-11T14:51:30;100608.84;;;6.78;44.28
56721;BME280;53183;47.412;18.884;2023-02-11T14:54:08;100608.09;;;6.71;43.98
56721;BME280;53183;47.412;18.884;2023-02-11T14:56:39;100610.84;;;6.65;44.29
56721;BME280;53183;47.412;18.884;2023-02-11T14:59:16;100606.00;;;6.44;45.08
56721;BME280;53183;47.412;18.884;2023-02-11T15:01:48;100603.16;;;6.54;45.17
56721;BME280;53183;47.412;18.884;2023-02-11T15:04:26;100597.19;;;6.46;45.45
56721;BME280;53183;47.412;18.884;2023-02-11T15:06:55;100592.00;;;6.43;45.28
56721;BME280;53183;47.412;18.884;2023-02-11T15:09:41;100588.63;;;6.37;45.63
56721;BME280;53183;47.412;18.884;2023-02-11T15:12:28;100592.44;;;6.20;46.09
56721;BME280;53183;47.412;18.884;2023-02-11T15:14:58;100593.41;;;6.15;45.93
56721;BME280;53183;47.412;18.884;2023-02-11T15:17:28;100588.41;;;6.02;46.59
56721;BME280;53183;47.412;18.884;2023-02-11T15:19:59;100590.13;;;6.03;46.85